Time;durP1;ratioP1;P1;durP2;ratioP2;P2;SDS_P1;SDS_P2;PMS_P1;PMS_P2;Temp;Humidity;BMP_temperature;BMP_pressure;BME280_temperature;BME280_humidity;BME280_pressure;Samples;Min_cycle;Max_cycle;Signal;HPM_P1;HPM_P2
2023/12/13 00:00:19;;;;;;;;;;;;;;;16.73;42.85;100682.81;4973358;28;1910;-51
2023/12/13 00:02:45;;;;;;;;;;;;;;;16.37;43.58;100687.22;4978603;28;1068;-53
2023/12/13 00:05:10;;;;;;;;;;;;;;;17.55;41.13;100685.53;4979059;28;1084;-52
2023/12/13 00:07:36;;;;;;;;;;;;;;;16.51;43.22;100684.44;4978541;28;1083;-53
2023/12/13 00:10:02;;;;;;;;;;;;;;;16.50;43.63;100695.13;4969937;28;2446;-53
2023/12/13 00:12:27;;;;;;;;;;;;;;;16.90;42.41;100680.69;4963338;28;1025;-52
2023/12/13 00:14:53;;;;;;;;;;;;;;;16.25;43.51;100684.50;4969921;28;1025;-54
2023/12/13 00:17:18;;;;;;;;;;;;;;;17.67;41.35;100678.41;4973266;28;1097;-55
2023/12/13 00:19:44;;;;;;;;;;;;;;;16.58;43.08;100676.81;4959540;28;1981;-51
2023/12/13 00:22:09;;;;;;;;;;;;;;;16.13;43.68;100672.97;4972223;28;1036;-52
2023/12/13 00:24:34;;;;;;;;;;;;;;;17.55;41.45;100666.94;4956538;28;972;-51
2023/12/13 00:27:00;;;;;;;;;;;;;;;16.69;42.87;100673.38;4968055;28;1104;-51
2023/12/13 00:29:26;;;;;;;;;;;;;;;16.05;43.87;100674.50;4959822;29;1140;-50
2023/12/13 00:31:51;;;;;;;;;;;;;;;17.55;41.24;100669.59;4974513;28;1192;-52
2023/12/13 00:34:17;;;;;;;;;;;;;;;16.24;43.38;100666.03;4970051;28;1119;-52
2023/12/13 00:36:42;;;;;;;;;;;;;;;17.66;41.30;100662.56;4961946;28;1062;-50
2023/12/13 00:39:08;;;;;;;;;;;;;;;17.04;42.09;100665.50;4975662;28;2433;-52
2023/12/13 00:41:33;;;;;;;;;;;;;;;16.21;43.36;100661.81;4967446;28;1907;-51
2023/12/13 00:43:59;;;;;;;;;;;;;;;17.11;42.47;100664.13;4959501;28;1029;-53
2023/12/13 00:46:26;;;;;;;;;;;;;;;16.59;43.08;100664.41;4972457;28;1081;-50
2023/12/13 00:48:52;;;;;;;;;;;;;;;16.11;43.28;100658.13;4972227;28;975;-51
2023/12/13 00:51:20;;;;;;;;;;;;;;;17.44;41.44;100667.78;4978214;28;1104;-51
2023/12/13 00:53:46;;;;;;;;;;;;;;;16.23;43.37;100653.75;4969500;28;1045;-50
2023/12/13 00:56:12;;;;;;;;;;;;;;;17.81;40.97;100649.88;4961375;28;1081;-50
2023/12/13 00:58:37;;;;;;;;;;;;;;;17.07;42.05;100641.34;4978174;28;985;-52
2023/12/13 01:01:03;;;;;;;;;;;;;;;16.30;43.37;100639.03;4963625;28;1902;-50
2023/12/13 01:03:29;;;;;;;;;;;;;;;17.50;41.63;100647.81;4977997;28;1104;-51
2023/12/13 01:05:54;;;;;;;;;;;;;;;16.56;43.13;100638.06;4965190;28;1128;-51
2023/12/13 01:08:20;;;;;;;;;;;;;;;17.32;41.98;100632.34;4978462;28;1099;-52
2023/12/13 01:10:45;;;;;;;;;;;;;;;17.63;40.82;100624.59;4964263;28;2245;-51
2023/12/13 01:13:11;;;;;;;;;;;;;;;16.44;43.22;100626.56;4977790;28;842;-50
2023/12/13 01:15:37;;;;;;;;;;;;;;;16.07;43.53;100630.09;4977617;28;1041;-52
2023/12/13 01:18:02;;;;;;;;;;;;;;;17.20;42.48;100620.84;4970136;28;1176;-51
2023/12/13 01:20:28;;;;;;;;;;;;;;;16.87;42.48;100620.66;4959917;28;1981;-48
2023/12/13 01:22:53;;;;;;;;;;;;;;;17.52;41.62;100623.78;4977787;28;1042;-51
2023/12/13 01:25:19;;;;;;;;;;;;;;;18.75;38.73;100623.69;4962322;28;1014;-51
2023/12/13 01:27:44;;;;;;;;;;;;;;;16.92;42.31;100619.44;4969656;28;1140;-48
2023/12/13 01:30:10;;;;;;;;;;;;;;;16.37;43.15;100624.38;4971179;28;1014;-50
2023/12/13 01:32:36;;;;;;;;;;;;;;;17.79;40.73;100615.41;4966225;28;1037;-51
2023/12/13 01:35:02;;;;;;;;;;;;;;;16.55;43.03;100613.31;4962771;28;1153;-53
2023/12/13 01:37:27;;;;;;;;;;;;;;;17.27;42.21;100607.94;4967348;28;1222;-50
2023/12/13 01:39:56;;;;;;;;;;;;;;;17.10;41.87;100599.47;4964633;28;2348;-51
2023/12/13 01:42:21;;;;;;;;;;;;;;;16.24;43.34;100597.88;4966876;28;1033;-50
2023/12/13 01:44:47;;;;;;;;;;;;;;;16.75;43.36;100597.69;4962604;28;1165;-51
2023/12/13 01:47:12;;;;;;;;;;;;;;;17.18;41.79;100600.69;4966920;28;1029;-49
2023/12/13 01:49:38;;;;;;;;;;;;;;;16.32;43.30;100589.34;4976942;28;919;-49
2023/12/13 01:52:04;;;;;;;;;;;;;;;17.62;41.39;100585.69;4969170;28;1044;-51
2023/12/13 01:54:30;;;;;;;;;;;;;;;16.61;42.90;100588.13;4972873;28;1132;-48
2023/12/13 01:56:56;;;;;;;;;;;;;;;17.79;40.81;100587.94;4976052;28;1032;-50
2023/12/13 01:59:22;;;;;;;;;;;;;;;17.94;40.06;100597.34;4977102;28;981;-49
2023/12/13 02:01:47;;;;;;;;;;;;;;;16.68;42.70;100578.72;4966227;28;1926;-49
2023/12/13 02:04:14;;;;;;;;;;;;;;;16.25;42.87;100580.13;4975868;28;1180;-53
2023/12/13 02:06:39;;;;;;;;;;;;;;;17.32;42.12;100581.84;4969648;28;1141;-53
2023/12/13 02:09:05;;;;;;;;;;;;;;;16.62;42.72;100580.03;4968114;28;1893;-51
2023/12/13 02:11:31;;;;;;;;;;;;;;;16.14;43.17;100578.28;4946356;28;990;-50
2023/12/13 02:13:56;;;;;;;;;;;;;;;17.43;41.34;100577.50;4974922;28;879;-50
2023/12/13 02:16:22;;;;;;;;;;;;;;;16.26;43.24;100576.53;4977318;28;1119;-49
2023/12/13 02:18:47;;;;;;;;;;;;;;;16.03;43.33;100566.66;4976609;28;1001;-49
2023/12/13 02:21:13;;;;;;;;;;;;;;;17.86;40.51;100560.72;4976928;28;1979;-52
2023/12/13 02:23:39;;;;;;;;;;;;;;;16.33;43.17;100553.03;4962704;28;1258;-51
2023/12/13 02:26:07;;;;;;;;;;;;;;;18.17;40.07;100556.53;4968495;28;838;-52
2023/12/13 02:28:33;;;;;;;;;;;;;;;17.60;40.72;100552.22;4969839;28;1090;-49
2023/12/13 02:30:59;;;;;;;;;;;;;;;16.54;43.02;100555.88;4957982;28;1030;-54
2023/12/13 02:33:27;;;;;;;;;;;;;;;16.33;43.53;100568.97;4972207;28;1105;-52
2023/12/13 02:35:55;;;;;;;;;;;;;;;17.09;42.06;100576.53;4967388;28;1149;-54
2023/12/13 02:38:21;;;;;;;;;;;;;;;16.33;43.15;100577.75;4963652;28;1421;-52
2023/12/13 02:40:47;;;;;;;;;;;;;;;17.19;42.32;100576.66;4961938;28;2708;-52
2023/12/13 02:43:12;;;;;;;;;;;;;;;16.72;42.45;100576.66;4970649;28;1097;-52
2023/12/13 02:45:38;;;;;;;;;;;;;;;17.27;41.97;100578.69;4966433;28;1073;-52
2023/12/13 02:48:03;;;;;;;;;;;;;;;18.30;39.41;100580.34;4975579;28;1100;-54
2023/12/13 02:50:29;;;;;;;;;;;;;;;16.77;42.32;100574.50;4978871;28;1060;-51
2023/12/13 02:52:55;;;;;;;;;;;;;;;16.51;43.49;100572.03;4980098;28;1049;-54
2023/12/13 02:55:20;;;;;;;;;;;;;;;17.21;41.52;100579.19;4980702;28;1264;-51
2023/12/13 02:57:45;;;;;;;;;;;;;;;16.31;43.46;100589.47;4980123;28;1171;-52
2023/12/13 03:00:11;;;;;;;;;;;;;;;15.94;43.38;100590.34;4974002;28;1898;-52
2023/12/13 03:02:38;;;;;;;;;;;;;;;17.10;42.48;100596.81;4967104;28;1013;-50
2023/12/13 03:05:03;;;;;;;;;;;;;;;16.84;42.17;100591.69;4980473;28;998;-52
2023/12/13 03:07:29;;;;;;;;;;;;;;;16.21;43.60;100594.59;4967600;28;1094;-49
2023/12/13 03:09:54;;;;;;;;;;;;;;;17.56;41.44;100598.63;4971714;28;2407;-50
2023/12/13 03:12:20;;;;;;;;;;;;;;;16.49;43.27;100598.72;4960817;28;947;-50
2023/12/13 03:14:45;;;;;;;;;;;;;;;18.03;40.36;100606.41;4960901;28;1065;-51
2023/12/13 03:17:11;;;;;;;;;;;;;;;18.26;39.36;100597.53;4960684;28;1112;-50
2023/12/13 03:19:36;;;;;;;;;;;;;;;16.74;42.52;100594.19;4961030;28;1053;-50
2023/12/13 03:22:02;;;;;;;;;;;;;;;16.27;43.12;100597.66;4975501;28;1985;-51
2023/12/13 03:24:28;;;;;;;;;;;;;;;17.69;41.16;100601.16;4973745;28;1113;-51
2023/12/13 03:26:53;;;;;;;;;;;;;;;16.55;42.85;100594.72;4979397;28;1151;-50
2023/12/13 03:29:19;;;;;;;;;;;;;;;16.20;43.81;100598.22;4971770;28;1056;-50
2023/12/13 03:31:44;;;;;;;;;;;;;;;17.23;41.57;100596.69;4961932;28;1072;-49
2023/12/13 03:34:10;;;;;;;;;;;;;;;16.83;43.01;100605.09;4971238;28;1228;-51
2023/12/13 03:36:36;;;;;;;;;;;;;;;18.64;38.97;100606.78;4973518;28;1064;-50
2023/12/13 03:39:02;;;;;;;;;;;;;;;17.37;41.18;100603.59;4978533;28;2590;-51
2023/12/13 03:41:27;;;;;;;;;;;;;;;16.52;42.68;100603.78;4974201;28;1906;-51
2023/12/13 03:43:53;;;;;;;;;;;;;;;16.34;43.52;100594.53;4972381;28;1148;-54
2023/12/13 03:46:18;;;;;;;;;;;;;;;16.96;42.17;100595.22;4961704;28;994;-49
2023/12/13 03:48:44;;;;;;;;;;;;;;;16.38;43.63;100591.53;4974556;28;1009;-50
2023/12/13 03:51:09;;;;;;;;;;;;;;;18.51;39.27;100598.13;4979882;28;1056;-53
2023/12/13 03:53:38;;;;;;;;;;;;;;;17.06;41.83;100594.47;4979383;28;1001;-51
2023/12/13 03:56:03;;;;;;;;;;;;;;;16.45;43.51;100604.38;4977499;28;1108;-49
2023/12/13 03:58:29;;;;;;;;;;;;;;;17.87;40.31;100605.00;4960130;28;1034;-49
2023/12/13 04:00:54;;;;;;;;;;;;;;;16.55;42.82;100599.22;4970545;28;1973;-47
2023/12/13 04:03:20;;;;;;;;;;;;;;;16.26;42.71;100601.28;4959618;28;1143;-48
2023/12/13 04:05:46;;;;;;;;;;;;;;;15.91;43.28;100592.25;4961549;28;1143;-48
2023/12/13 04:08:11;;;;;;;;;;;;;;;17.58;41.48;100607.34;4971479;28;1105;-51
2023/12/13 04:10:37;;;;;;;;;;;;;;;16.41;43.00;100603.75;4962998;28;2372;-52
2023/12/13 04:13:02;;;;;;;;;;;;;;;17.47;41.78;100601.06;4975093;28;1117;-52
2023/12/13 04:15:28;;;;;;;;;;;;;;;17.66;40.65;100599.59;4977220;28;1021;-52
2023/12/13 04:17:53;;;;;;;;;;;;;;;16.46;43.10;100604.25;4960489;28;1009;-51
2023/12/13 04:20:19;;;;;;;;;;;;;;;16.10;43.16;100601.53;4961544;28;1907;-51
2023/12/13 04:22:44;;;;;;;;;;;;;;;17.68;40.83;100602.97;4970885;28;1207;-50
2023/12/13 04:25:10;;;;;;;;;;;;;;;16.32;43.19;100602.63;4963941;28;1208;-49
2023/12/13 04:27:35;;;;;;;;;;;;;;;17.79;40.88;100609.22;4962658;28;1144;-52
2023/12/13 04:30:01;;;;;;;;;;;;;;;17.34;41.30;100610.97;4968853;28;1131;-52
2023/12/13 04:32:27;;;;;;;;;;;;;;;16.32;43.18;100609.72;4965484;28;977;-51
2023/12/13 04:34:52;;;;;;;;;;;;;;;17.64;41.04;100614.81;4978612;28;1044;-51
2023/12/13 04:37:19;;;;;;;;;;;;;;;16.85;42.40;100611.13;4968115;28;1096;-50
2023/12/13 04:39:45;;;;;;;;;;;;;;;16.24;43.30;100619.13;4972622;28;1944;-50
2023/12/13 04:42:10;;;;;;;;;;;;;;;17.30;41.90;100620.97;4978705;28;1042;-50
2023/12/13 04:44:36;;;;;;;;;;;;;;;16.57;42.82;100619.38;4965746;28;1108;-47
2023/12/13 04:47:01;;;;;;;;;;;;;;;16.14;43.54;100634.03;4970856;28;1040;-49
2023/12/13 04:49:27;;;;;;;;;;;;;;;17.44;41.21;100635.88;4962281;28;1105;-47
2023/12/13 04:51:53;;;;;;;;;;;;;;;16.25;43.27;100626.13;4959320;28;1110;-49
2023/12/13 04:54:21;;;;;;;;;;;;;;;18.18;40.02;100635.44;4959333;28;1044;-53
2023/12/13 04:56:46;;;;;;;;;;;;;;;17.23;41.52;100627.75;4971685;28;1136;-54
2023/12/13 04:59:12;;;;;;;;;;;;;;;16.61;43.12;100625.31;4971475;28;1088;-51
2023/12/13 05:01:38;;;;;;;;;;;;;;;18.28;39.47;100617.75;4971934;28;1971;-51
2023/12/13 05:04:03;;;;;;;;;;;;;;;16.74;42.67;100630.53;4959176;28;1038;-50
2023/12/13 05:06:29;;;;;;;;;;;;;;;16.26;43.17;100625.19;4977228;28;1029;-52
2023/12/13 05:08:54;;;;;;;;;;;;;;;18.16;40.05;100630.25;4977887;28;1151;-52
2023/12/13 05:11:20;;;;;;;;;;;;;;;16.64;42.84;100633.88;4971921;28;2945;-51
2023/12/13 05:13:45;;;;;;;;;;;;;;;16.13;43.29;100629.69;4964350;28;1041;-51
2023/12/13 05:16:11;;;;;;;;;;;;;;;17.43;41.61;100633.34;4963718;28;1042;-51
2023/12/13 05:18:36;;;;;;;;;;;;;;;16.50;43.04;100634.06;4976644;28;1050;-52
2023/12/13 05:21:02;;;;;;;;;;;;;;;16.93;42.72;100629.13;4972405;28;1906;-53
2023/12/13 05:23:28;;;;;;;;;;;;;;;17.65;40.61;100637.78;4958736;28;1017;-50
2023/12/13 05:25:54;;;;;;;;;;;;;;;16.36;43.37;100635.09;4975643;28;1152;-53
2023/12/13 05:28:19;;;;;;;;;;;;;;;17.68;40.61;100642.88;4965773;28;1148;-54
2023/12/13 05:30:45;;;;;;;;;;;;;;;17.15;41.69;100641.63;4958067;28;1088;-50
2023/12/13 05:33:10;;;;;;;;;;;;;;;16.75;42.47;100645.50;4969850;28;1105;-55
2023/12/13 05:35:36;;;;;;;;;;;;;;;16.45;43.08;100639.72;4959724;28;1157;-52
2023/12/13 05:38:01;;;;;;;;;;;;;;;16.30;43.45;100643.53;4964422;28;1097;-54
2023/12/13 05:40:27;;;;;;;;;;;;;;;16.07;43.83;100643.38;4971503;28;2431;-53
2023/12/13 05:42:53;;;;;;;;;;;;;;;15.88;44.20;100645.53;4977831;28;1077;-53
2023/12/13 05:45:18;;;;;;;;;;;;;;;15.77;44.20;100645.44;4951927;28;1038;-53
2023/12/13 05:47:44;;;;;;;;;;;;;;;15.58;44.77;100630.00;4952043;28;1168;-55
2023/12/13 05:50:09;;;;;;;;;;;;;;;15.45;44.97;100627.38;4975894;28;1245;-55
2023/12/13 05:52:36;;;;;;;;;;;;;;;15.29;45.41;100624.00;4964770;28;1085;-57
2023/12/13 05:55:02;;;;;;;;;;;;;;;15.20;45.40;100623.78;4944943;28;1278;-54
2023/12/13 05:57:28;;;;;;;;;;;;;;;16.63;42.67;100618.06;4971223;28;1110;-53
2023/12/13 05:59:53;;;;;;;;;;;;;;;16.40;42.78;100612.66;4958064;28;1963;-52
2023/12/13 06:02:19;;;;;;;;;;;;;;;15.75;44.25;100611.09;4963918;28;1037;-52
2023/12/13 06:04:44;;;;;;;;;;;;;;;15.44;44.89;100610.63;4963580;28;2312;-52
2023/12/13 06:07:10;;;;;;;;;;;;;;;15.27;45.28;100607.34;4964554;28;1160;-52
2023/12/13 06:09:35;;;;;;;;;;;;;;;16.62;42.33;100603.09;4976649;28;1029;-53
2023/12/13 06:12:03;;;;;;;;;;;;;;;16.71;41.84;100596.22;4964740;28;1160;-48
2023/12/13 06:14:29;;;;;;;;;;;;;;;15.87;43.83;100598.75;4954447;28;814;-53
2023/12/13 06:16:55;;;;;;;;;;;;;;;15.59;44.66;100615.78;4977373;28;1104;-53
2023/12/13 06:19:21;;;;;;;;;;;;;;;15.29;45.26;100626.66;4977441;28;911;-55
2023/12/13 06:21:46;;;;;;;;;;;;;;;16.53;42.67;100621.41;4976804;28;1902;-53
2023/12/13 06:24:12;;;;;;;;;;;;;;;16.87;41.41;100609.19;4958194;28;1073;-54
2023/12/13 06:26:38;;;;;;;;;;;;;;;15.97;43.54;100620.16;4964516;28;1066;-54
2023/12/13 06:29:03;;;;;;;;;;;;;;;15.63;44.29;100619.94;4973684;28;1153;-53
2023/12/13 06:31:29;;;;;;;;;;;;;;;15.94;43.77;100615.06;4961683;28;1085;-53
2023/12/13 06:33:54;;;;;;;;;;;;;;;17.12;40.98;100616.16;4962169;28;1120;-51
2023/12/13 06:36:20;;;;;;;;;;;;;;;16.19;42.85;100633.69;4974589;28;1065;-50
2023/12/13 06:38:46;;;;;;;;;;;;;;;15.67;44.13;100630.19;4970141;28;1357;-50
2023/12/13 06:41:12;;;;;;;;;;;;;;;16.02;43.55;100619.84;4981051;28;1910;-51
2023/12/13 06:43:37;;;;;;;;;;;;;;;17.00;41.28;100601.09;4980723;28;1238;-50
2023/12/13 06:46:03;;;;;;;;;;;;;;;15.99;43.38;100594.38;4981270;28;1096;-52
2023/12/13 06:48:29;;;;;;;;;;;;;;;15.62;44.06;100589.91;4962532;28;1243;-50
2023/12/13 06:50:55;;;;;;;;;;;;;;;15.55;44.65;100588.63;4964159;28;1124;-51
2023/12/13 06:53:21;;;;;;;;;;;;;;;17.11;41.32;100582.56;4961117;28;1057;-50
2023/12/13 06:55:46;;;;;;;;;;;;;;;16.45;42.10;100589.25;4962186;28;1089;-51
2023/12/13 06:58:12;;;;;;;;;;;;;;;15.78;43.59;100583.50;4967117;28;1153;-52
2023/12/13 07:00:38;;;;;;;;;;;;;;;15.53;44.55;100566.72;4980798;28;1981;-48
2023/12/13 07:03:03;;;;;;;;;;;;;;;17.06;41.11;100563.44;4970120;28;1140;-50
2023/12/13 07:05:29;;;;;;;;;;;;;;;16.23;42.90;100560.84;4968441;28;1157;-51
2023/12/13 07:07:55;;;;;;;;;;;;;;;15.75;43.77;100573.94;4966770;28;1093;-48
2023/12/13 07:10:21;;;;;;;;;;;;;;;15.49;44.30;100597.88;4980872;28;1160;-47
2023/12/13 07:12:47;;;;;;;;;;;;;;;16.03;43.60;100597.66;4974488;28;1088;-51
2023/12/13 07:15:13;;;;;;;;;;;;;;;16.89;41.25;100605.47;4963672;28;1251;-46
2023/12/13 07:17:39;;;;;;;;;;;;;;;16.01;43.08;100615.50;4980034;28;1029;-52
2023/12/13 07:20:05;;;;;;;;;;;;;;;15.61;43.99;100614.75;4980527;28;1977;-46
2023/12/13 07:22:31;;;;;;;;;;;;;;;16.66;42.07;100596.59;4967137;28;1216;-47
2023/12/13 07:24:56;;;;;;;;;;;;;;;16.83;41.53;100582.00;4980026;28;1036;-47
2023/12/13 07:27:22;;;;;;;;;;;;;;;16.05;43.45;100560.41;4973434;28;1022;-48
2023/12/13 07:29:47;;;;;;;;;;;;;;;15.65;44.31;100559.66;4960855;28;1038;-50
2023/12/13 07:32:13;;;;;;;;;;;;;;;15.48;44.71;100574.97;4966703;28;1196;-52
2023/12/13 07:34:41;;;;;;;;;;;;;;;16.99;41.63;100579.03;4968204;28;1081;-50
2023/12/13 07:37:07;;;;;;;;;;;;;;;16.43;42.41;100585.91;4960459;28;1128;-50
2023/12/13 07:39:35;;;;;;;;;;;;;;;15.78;43.93;100571.06;4960726;28;1074;-54
2023/12/13 07:42:00;;;;;;;;;;;;;;;16.11;43.31;100568.75;4960372;28;1907;-51
2023/12/13 07:44:28;;;;;;;;;;;;;;;17.14;40.95;100581.47;4961046;28;1136;-50
2023/12/13 07:46:53;;;;;;;;;;;;;;;16.15;43.12;100587.94;4960947;28;1038;-46
2023/12/13 07:49:19;;;;;;;;;;;;;;;15.77;44.03;100590.59;4960616;28;1390;-49
2023/12/13 07:51:44;;;;;;;;;;;;;;;15.53;44.56;100583.44;4960354;28;1307;-47
2023/12/13 07:54:12;;;;;;;;;;;;;;;16.41;42.83;100574.53;4960464;28;1049;-48
2023/12/13 07:56:37;;;;;;;;;;;;;;;17.40;40.29;100569.75;4960156;29;1351;-50
2023/12/13 07:59:03;;;;;;;;;;;;;;;16.38;42.23;100561.50;4960720;28;1165;-50
2023/12/13 08:01:28;;;;;;;;;;;;;;;15.76;44.06;100565.06;4958347;28;1985;-48
2023/12/13 08:03:55;;;;;;;;;;;;;;;15.55;44.17;100557.69;4959763;28;1187;-47
2023/12/13 08:06:21;;;;;;;;;;;;;;;17.00;41.41;100556.78;4960318;28;1299;-49
2023/12/13 08:08:47;;;;;;;;;;;;;;;16.64;42.15;100559.53;4960415;28;1038;-46
2023/12/13 08:11:12;;;;;;;;;;;;;;;15.90;43.24;100555.22;4960545;28;1014;-50
2023/12/13 08:13:38;;;;;;;;;;;;;;;15.61;44.23;100563.50;4960020;28;1228;-49
2023/12/13 08:16:05;;;;;;;;;;;;;;;16.27;42.95;100551.69;4960029;28;1007;-51
2023/12/13 08:18:30;;;;;;;;;;;;;;;16.92;41.55;100551.22;4960472;28;1125;-50
2023/12/13 08:20:56;;;;;;;;;;;;;;;16.08;43.04;100552.22;4959962;28;1986;-51
2023/12/13 08:23:21;;;;;;;;;;;;;;;15.72;44.17;100544.16;4959685;28;1128;-46
2023/12/13 08:25:47;;;;;;;;;;;;;;;16.50;42.50;100530.50;4959886;28;1073;-47
2023/12/13 08:28:13;;;;;;;;;;;;;;;17.05;41.18;100537.81;4964940;28;840;-50
2023/12/13 08:30:38;;;;;;;;;;;;;;;16.21;42.87;100553.00;4959920;28;1069;-49
2023/12/13 08:33:04;;;;;;;;;;;;;;;15.79;44.02;100535.66;4959707;28;1080;-51
2023/12/13 08:35:29;;;;;;;;;;;;;;;15.98;43.88;100544.91;4959496;28;1014;-47
2023/12/13 08:37:55;;;;;;;;;;;;;;;17.22;41.04;100559.59;4959896;28;1425;-49
2023/12/13 08:40:20;;;;;;;;;;;;;;;16.33;42.70;100543.25;4959416;28;1976;-48
2023/12/13 08:42:46;;;;;;;;;;;;;;;15.89;43.71;100543.78;4959734;28;1159;-46
2023/12/13 08:45:12;;;;;;;;;;;;;;;15.54;44.64;100533.94;4959787;28;1061;-48
2023/12/13 08:47:37;;;;;;;;;;;;;;;16.53;42.64;100523.16;4958813;28;1235;-46
2023/12/13 08:50:03;;;;;;;;;;;;;;;17.09;41.09;100517.19;4959675;28;1161;-46
2023/12/13 08:52:29;;;;;;;;;;;;;;;16.18;43.19;100532.00;4959553;28;907;-50
2023/12/13 08:54:54;;;;;;;;;;;;;;;15.82;43.91;100537.22;4951651;28;1037;-54
2023/12/13 08:57:20;;;;;;;;;;;;;;;15.60;44.39;100530.00;4966576;28;1092;-52
2023/12/13 08:59:46;;;;;;;;;;;;;;;16.92;41.75;100518.47;4959705;28;1164;-51
2023/12/13 09:02:11;;;;;;;;;;;;;;;17.02;41.28;100503.50;4959455;28;1911;-51
2023/12/13 09:04:37;;;;;;;;;;;;;;;16.24;43.27;100504.13;4958717;28;1160;-54
2023/12/13 09:07:03;;;;;;;;;;;;;;;15.83;43.98;100500.94;4958920;28;1223;-52
2023/12/13 09:09:29;;;;;;;;;;;;;;;15.62;44.22;100486.50;4959229;29;1157;-53
2023/12/13 09:11:59;;;;;;;;;;;;;;;16.36;43.22;100467.84;4958378;28;1327;-53
2023/12/13 09:14:27;;;;;;;;;;;;;;;17.17;41.15;100474.06;4958968;29;1085;-51
2023/12/13 09:16:52;;;;;;;;;;;;;;;16.19;43.27;100471.78;4958753;28;994;-53
2023/12/13 09:19:18;;;;;;;;;;;;;;;15.76;44.01;100485.50;4957057;28;1090;-53
2023/12/13 09:21:43;;;;;;;;;;;;;;;15.95;43.83;100500.00;4959153;28;1981;-52
2023/12/13 09:24:09;;;;;;;;;;;;;;;17.16;41.41;100494.50;4959036;28;1073;-50
2023/12/13 09:26:37;;;;;;;;;;;;;;;16.19;43.40;100500.97;4958557;28;1029;-53
2023/12/13 09:29:03;;;;;;;;;;;;;;;15.82;44.02;100505.38;4958625;28;1192;-53
2023/12/13 09:31:29;;;;;;;;;;;;;;;15.72;44.49;100499.91;4958735;28;1148;-51
2023/12/13 09:33:54;;;;;;;;;;;;;;;17.09;41.24;100499.44;4958690;28;1104;-52
2023/12/13 09:36:21;;;;;;;;;;;;;;;16.20;43.27;100497.38;4958306;28;1137;-49
2023/12/13 09:38:46;;;;;;;;;;;;;;;15.71;44.18;100490.28;4958183;28;1239;-54
2023/12/13 09:41:13;;;;;;;;;;;;;;;15.52;45.11;100490.75;4967818;28;1910;-50
2023/12/13 09:43:40;;;;;;;;;;;;;;;16.91;42.15;100491.09;4958267;28;1080;-48
2023/12/13 09:46:07;;;;;;;;;;;;;;;16.46;42.73;100487.44;4957093;28;1100;-51
2023/12/13 09:48:34;;;;;;;;;;;;;;;15.88;43.99;100474.91;4957109;28;1058;-53
2023/12/13 09:51:00;;;;;;;;;;;;;;;15.57;44.58;100467.41;4957682;28;1126;-52
2023/12/13 09:53:27;;;;;;;;;;;;;;;15.48;45.40;100462.81;4957051;28;915;-52
2023/12/13 09:55:52;;;;;;;;;;;;;;;16.98;41.99;100456.91;4957189;28;1228;-54
2023/12/13 09:58:18;;;;;;;;;;;;;;;16.48;42.88;100442.16;4958070;28;1153;-51
2023/12/13 10:00:43;;;;;;;;;;;;;;;15.84;43.94;100428.34;4958435;28;1973;-51
2023/12/13 10:03:09;;;;;;;;;;;;;;;15.54;44.83;100420.78;4958112;28;1181;-51
2023/12/13 10:05:35;;;;;;;;;;;;;;;16.83;42.38;100416.47;4957712;28;1073;-53
2023/12/13 10:08:04;;;;;;;;;;;;;;;16.64;42.32;100409.94;4952756;28;1331;-55
2023/12/13 10:10:31;;;;;;;;;;;;;;;15.99;43.88;100390.09;4958342;28;1021;-51
2023/12/13 10:12:57;;;;;;;;;;;;;;;15.66;44.75;100383.69;4957895;28;1188;-51
2023/12/13 10:15:24;;;;;;;;;;;;;;;15.47;44.94;100379.75;4957607;28;1342;-53
2023/12/13 10:17:50;;;;;;;;;;;;;;;16.65;42.69;100380.59;4959365;28;1085;-52
2023/12/13 10:20:16;;;;;;;;;;;;;;;16.71;42.11;100370.47;4958241;28;1906;-52
2023/12/13 10:22:41;;;;;;;;;;;;;;;15.95;43.88;100369.19;4958214;28;1068;-49
2023/12/13 10:25:07;;;;;;;;;;;;;;;15.62;44.49;100361.00;4957055;28;1154;-52
2023/12/13 10:27:32;;;;;;;;;;;;;;;15.67;45.06;100372.13;4957639;28;1033;-50
2023/12/13 10:29:59;;;;;;;;;;;;;;;17.15;41.69;100375.84;4957752;28;1147;-51
2023/12/13 10:32:24;;;;;;;;;;;;;;;16.34;43.04;100372.41;4957444;28;1116;-52
2023/12/13 10:34:50;;;;;;;;;;;;;;;15.83;44.28;100369.16;4957515;28;1110;-53
2023/12/13 10:37:15;;;;;;;;;;;;;;;15.57;45.16;100365.81;4957431;28;1205;-52
2023/12/13 10:39:46;;;;;;;;;;;;;;;16.62;42.81;100369.38;4958656;28;1149;-51
2023/12/13 10:42:14;;;;;;;;;;;;;;;17.03;41.54;100356.41;4957974;28;1906;-51
2023/12/13 10:44:39;;;;;;;;;;;;;;;16.17;43.18;100352.47;4956917;28;1189;-55
2023/12/13 10:47:07;;;;;;;;;;;;;;;15.76;44.45;100347.56;4956648;28;1083;-56
2023/12/13 10:49:33;;;;;;;;;;;;;;;15.50;44.91;100347.72;4940366;28;1179;-54
2023/12/13 10:51:58;;;;;;;;;;;;;;;16.52;43.25;100345.38;4958154;28;1026;-54
2023/12/13 10:54:24;;;;;;;;;;;;;;;17.02;41.61;100347.59;4956725;28;1065;-54
2023/12/13 10:56:49;;;;;;;;;;;;;;;16.13;43.52;100335.94;4958013;28;1112;-55
2023/12/13 10:59:15;;;;;;;;;;;;;;;15.77;44.38;100343.94;4957679;28;1158;-54
2023/12/13 11:01:41;;;;;;;;;;;;;;;15.51;44.99;100349.44;4957616;28;1907;-56
2023/12/13 11:04:08;;;;;;;;;;;;;;;16.91;42.22;100346.75;4954866;28;1049;-54
2023/12/13 11:06:35;;;;;;;;;;;;;;;16.75;42.37;100340.00;4950781;28;1162;-50
2023/12/13 11:09:08;;;;;;;;;;;;;;;16.02;43.97;100335.94;4957948;28;1037;-53
2023/12/13 11:11:34;;;;;;;;;;;;;;;15.67;44.71;100321.75;4959405;28;1094;-55
2023/12/13 11:14:01;;;;;;;;;;;;;;;15.48;45.04;100317.81;4961592;28;1053;-52
2023/12/13 11:16:27;;;;;;;;;;;;;;;16.53;43.08;100313.38;4960045;28;1114;-52
2023/12/13 11:18:53;;;;;;;;;;;;;;;17.04;41.72;100309.41;4961028;28;1049;-51
2023/12/13 11:21:31;;;;;;;;;;;;;;;16.07;43.73;100309.03;4961080;28;1970;-51
2023/12/13 11:24:00;;;;;;;;;;;;;;;15.73;44.98;100307.19;4959025;29;1382;-51
2023/12/13 11:26:30;;;;;;;;;;;;;;;15.48;45.26;100311.69;4961020;28;1097;-54
2023/12/13 11:28:56;;;;;;;;;;;;;;;16.74;42.65;100301.16;4960782;28;1137;-53
2023/12/13 11:31:22;;;;;;;;;;;;;;;16.84;42.21;100307.41;4960061;28;1033;-50
2023/12/13 11:33:48;;;;;;;;;;;;;;;15.98;44.27;100290.22;4961039;28;1093;-51
2023/12/13 11:36:17;;;;;;;;;;;;;;;15.62;44.95;100300.88;4961192;28;1173;-54
2023/12/13 11:38:42;;;;;;;;;;;;;;;15.93;44.78;100289.72;4960582;28;1221;-53
2023/12/13 11:41:08;;;;;;;;;;;;;;;17.27;41.36;100282.78;4960190;28;1906;-51
2023/12/13 11:43:33;;;;;;;;;;;;;;;16.28;43.48;100283.47;4960534;28;1010;-52
2023/12/13 11:45:59;;;;;;;;;;;;;;;15.88;44.55;100300.69;4960766;28;1037;-54
2023/12/13 11:48:24;;;;;;;;;;;;;;;15.60;45.22;100294.03;4959673;28;1070;-53
2023/12/13 11:50:51;;;;;;;;;;;;;;;16.34;43.66;100282.16;4960468;28;1061;-53
2023/12/13 11:53:17;;;;;;;;;;;;;;;16.87;42.16;100280.59;4959601;28;1160;-52
2023/12/13 11:55:43;;;;;;;;;;;;;;;16.07;43.88;100279.84;4960719;28;1092;-50
2023/12/13 11:58:08;;;;;;;;;;;;;;;15.68;45.21;100270.41;4960548;28;1062;-52
2023/12/13 12:00:34;;;;;;;;;;;;;;;15.82;44.77;100265.81;4960393;28;1910;-51
2023/12/13 12:02:59;;;;;;;;;;;;;;;17.25;41.81;100277.56;4960492;28;1141;-51
2023/12/13 12:05:25;;;;;;;;;;;;;;;16.46;43.33;100269.72;4959000;28;1169;-51
2023/12/13 12:08:01;;;;;;;;;;;;;;;15.85;44.78;100263.78;4960539;28;1098;-52
2023/12/13 12:10:28;;;;;;;;;;;;;;;15.59;45.37;100261.34;4959539;28;1268;-53
2023/12/13 12:12:54;;;;;;;;;;;;;;;15.39;46.04;100260.22;4958715;28;1062;-50
2023/12/13 12:15:20;;;;;;;;;;;;;;;16.79;42.92;100247.66;4959859;28;1084;-50
2023/12/13 12:17:45;;;;;;;;;;;;;;;16.59;42.90;100242.16;4960221;28;989;-54
2023/12/13 12:20:12;;;;;;;;;;;;;;;15.94;44.66;100232.19;4958607;28;1898;-52
2023/12/13 12:22:38;;;;;;;;;;;;;;;15.64;45.51;100245.94;4957503;28;1204;-50
2023/12/13 12:25:04;;;;;;;;;;;;;;;16.28;44.15;100234.88;4959946;28;1108;-54
2023/12/13 12:27:29;;;;;;;;;;;;;;;17.11;41.90;100231.75;4960144;28;1069;-56
2023/12/13 12:29:55;;;;;;;;;;;;;;;16.17;44.09;100217.13;4959923;28;1196;-56
2023/12/13 12:32:20;;;;;;;;;;;;;;;15.73;45.24;100219.66;4959937;28;1106;-55
2023/12/13 12:34:47;;;;;;;;;;;;;;;15.48;45.51;100221.56;4959161;28;1162;-54
2023/12/13 12:37:13;;;;;;;;;;;;;;;16.72;43.15;100220.75;4959802;28;1061;-53
2023/12/13 12:39:38;;;;;;;;;;;;;;;16.87;42.39;100219.50;4959734;28;1156;-56